sensor_id;sensor_type;location;lat;lon;timestamp;P1;durP1;ratioP1;P2;durP2;ratioP2
21959;SDS011;11144;43.030;25.108;2023-08-17T00:00:38;14.27;;;10.23;;
21959;SDS011;11144;43.030;25.108;2023-08-17T00:02:11;13.05;;;9.15;;
21959;SDS011;11144;43.030;25.108;2023-08-17T00:03:44;10.98;;;8.65;;
21959;SDS011;11144;43.030;25.108;2023-08-17T00:05:19;14.50;;;9.57;;
21959;SDS011;11144;43.030;25.108;2023-08-17T00:06:51;12.50;;;9.30;;
21959;SDS011;11144;43.030;25.108;2023-08-17T00:08:24;15.82;;;9.75;;
21959;SDS011;11144;43.030;25.108;2023-08-17T00:09:57;12.57;;;9.60;;
21959;SDS011;11144;43.030;25.108;2023-08-17T00:11:30;12.00;;;8.95;;
21959;SDS011;11144;43.030;25.108;2023-08-17T00:13:02;12.52;;;8.68;;
21959;SDS011;11144;43.030;25.108;2023-08-17T00:14:36;12.52;;;9.10;;
21959;SDS011;11144;43.030;25.108;2023-08-17T00:16:08;12.80;;;8.80;;
21959;SDS011;11144;43.030;25.108;2023-08-17T00:17:41;12.00;;;8.40;;
21959;SDS011;11144;43.030;25.108;2023-08-17T00:19:15;11.43;;;8.68;;
21959;SDS011;11144;43.030;25.108;2023-08-17T00:20:48;12.32;;;8.77;;
21959;SDS011;11144;43.030;25.108;2023-08-17T00:22:22;10.40;;;8.43;;
21959;SDS011;11144;43.030;25.108;2023-08-17T00:23:54;12.30;;;8.73;;
21959;SDS011;11144;43.030;25.108;2023-08-17T00:25:28;12.48;;;8.55;;
21959;SDS011;11144;43.030;25.108;2023-08-17T00:27:00;10.77;;;7.82;;
21959;SDS011;11144;43.030;25.108;2023-08-17T00:28:34;12.40;;;8.50;;
21959;SDS011;11144;43.030;25.108;2023-08-17T00:30:08;12.95;;;8.70;;
21959;SDS011;11144;43.030;25.108;2023-08-17T00:31:41;9.50;;;7.72;;
21959;SDS011;11144;43.030;25.108;2023-08-17T00:33:15;9.70;;;7.70;;
21959;SDS011;11144;43.030;25.108;2023-08-17T00:34:47;10.55;;;8.13;;
21959;SDS011;11144;43.030;25.108;2023-08-17T00:36:22;9.77;;;7.85;;
21959;SDS011;11144;43.030;25.108;2023-08-17T00:37:55;13.80;;;9.23;;
21959;SDS011;11144;43.030;25.108;2023-08-17T00:39:28;11.68;;;8.35;;
21959;SDS011;11144;43.030;25.108;2023-08-17T00:41:01;10.77;;;7.75;;
21959;SDS011;11144;43.030;25.108;2023-08-17T00:42:34;12.43;;;7.88;;
21959;SDS011;11144;43.030;25.108;2023-08-17T00:44:08;10.20;;;8.45;;
21959;SDS011;11144;43.030;25.108;2023-08-17T00:45:40;13.88;;;8.85;;
21959;SDS011;11144;43.030;25.108;2023-08-17T00:47:14;13.82;;;9.88;;
21959;SDS011;11144;43.030;25.108;2023-08-17T00:48:49;12.27;;;9.30;;
21959;SDS011;11144;43.030;25.108;2023-08-17T00:50:22;13.35;;;10.45;;
21959;SDS011;11144;43.030;25.108;2023-08-17T00:51:57;16.95;;;9.57;;
21959;SDS011;11144;43.030;25.108;2023-08-17T00:53:30;13.20;;;9.95;;
21959;SDS011;11144;43.030;25.108;2023-08-17T00:55:04;12.65;;;10.07;;
21959;SDS011;11144;43.030;25.108;2023-08-17T00:56:38;18.90;;;11.00;;
21959;SDS011;11144;43.030;25.108;2023-08-17T00:58:10;13.75;;;10.25;;
21959;SDS011;11144;43.030;25.108;2023-08-17T00:59:45;11.90;;;9.93;;
21959;SDS011;11144;43.030;25.108;2023-08-17T01:01:34;12.80;;;9.80;;
21959;SDS011;11144;43.030;25.108;2023-08-17T01:03:09;14.27;;;10.23;;
21959;SDS011;11144;43.030;25.108;2023-08-17T01:04:42;13.93;;;10.13;;
21959;SDS011;11144;43.030;25.108;2023-08-17T01:06:15;13.32;;;9.55;;
21959;SDS011;11144;43.030;25.108;2023-08-17T01:07:49;16.17;;;10.90;;
21959;SDS011;11144;43.030;25.108;2023-08-17T01:09:22;14.57;;;9.95;;
21959;SDS011;11144;43.030;25.108;2023-08-17T01:10:57;27.38;;;20.30;;
21959;SDS011;11144;43.030;25.108;2023-08-17T01:12:37;13.52;;;9.52;;
21959;SDS011;11144;43.030;25.108;2023-08-17T01:14:16;12.07;;;8.77;;
21959;SDS011;11144;43.030;25.108;2023-08-17T01:15:59;14.32;;;8.30;;
21959;SDS011;11144;43.030;25.108;2023-08-17T01:17:39;10.63;;;7.80;;
21959;SDS011;11144;43.030;25.108;2023-08-17T01:19:18;11.35;;;8.23;;
21959;SDS011;11144;43.030;25.108;2023-08-17T01:20:57;11.35;;;8.07;;
21959;SDS011;11144;43.030;25.108;2023-08-17T01:22:30;12.30;;;8.27;;
21959;SDS011;11144;43.030;25.108;2023-08-17T01:24:09;16.02;;;8.20;;
21959;SDS011;11144;43.030;25.108;2023-08-17T01:25:43;13.88;;;7.78;;
21959;SDS011;11144;43.030;25.108;2023-08-17T01:27:16;12.73;;;8.45;;
21959;SDS011;11144;43.030;25.108;2023-08-17T01:28:51;13.45;;;8.88;;
21959;SDS011;11144;43.030;25.108;2023-08-17T01:30:24;14.95;;;8.05;;
21959;SDS011;11144;43.030;25.108;2023-08-17T01:55:06;18.30;;;11.05;;
21959;SDS011;11144;43.030;25.108;2023-08-17T01:56:40;16.48;;;10.88;;
21959;SDS011;11144;43.030;25.108;2023-08-17T01:58:13;18.92;;;11.23;;
21959;SDS011;11144;43.030;25.108;2023-08-17T01:59:45;28.83;;;12.93;;
21959;SDS011;11144;43.030;25.108;2023-08-17T02:01:19;24.33;;;11.85;;
21959;SDS011;11144;43.030;25.108;2023-08-17T02:02:51;19.95;;;10.98;;
21959;SDS011;11144;43.030;25.108;2023-08-17T02:04:24;20.70;;;11.30;;
21959;SDS011;11144;43.030;25.108;2023-08-17T02:05:57;20.55;;;12.63;;
21959;SDS011;11144;43.030;25.108;2023-08-17T02:07:31;27.63;;;13.13;;
21959;SDS011;11144;43.030;25.108;2023-08-17T02:09:04;16.05;;;11.35;;
21959;SDS011;11144;43.030;25.108;2023-08-17T02:10:38;14.77;;;10.55;;
21959;SDS011;11144;43.030;25.108;2023-08-17T02:12:11;17.65;;;10.63;;
21959;SDS011;11144;43.030;25.108;2023-08-17T02:13:44;21.73;;;10.80;;
21959;SDS011;11144;43.030;25.108;2023-08-17T02:15:18;15.82;;;10.80;;
21959;SDS011;11144;43.030;25.108;2023-08-17T02:16:50;19.98;;;11.18;;
21959;SDS011;11144;43.030;25.108;2023-08-17T02:18:25;13.95;;;10.05;;
21959;SDS011;11144;43.030;25.108;2023-08-17T02:20:00;12.88;;;10.20;;
21959;SDS011;11144;43.030;25.108;2023-08-17T02:21:34;18.08;;;10.02;;
21959;SDS011;11144;43.030;25.108;2023-08-17T02:23:06;16.45;;;10.43;;
21959;SDS011;11144;43.030;25.108;2023-08-17T02:24:40;13.75;;;9.55;;
21959;SDS011;11144;43.030;25.108;2023-08-17T02:26:13;12.20;;;9.52;;
21959;SDS011;11144;43.030;25.108;2023-08-17T02:27:47;18.35;;;10.98;;
21959;SDS011;11144;43.030;25.108;2023-08-17T02:29:19;17.25;;;11.30;;
21959;SDS011;11144;43.030;25.108;2023-08-17T02:30:54;17.17;;;10.40;;
21959;SDS011;11144;43.030;25.108;2023-08-17T02:32:28;20.60;;;10.48;;
21959;SDS011;11144;43.030;25.108;2023-08-17T02:34:00;18.63;;;10.27;;
21959;SDS011;11144;43.030;25.108;2023-08-17T02:35:37;17.63;;;10.20;;
21959;SDS011;11144;43.030;25.108;2023-08-17T02:37:09;14.82;;;9.25;;
21959;SDS011;11144;43.030;25.108;2023-08-17T02:38:42;16.98;;;10.45;;
21959;SDS011;11144;43.030;25.108;2023-08-17T02:40:16;13.98;;;9.55;;
21959;SDS011;11144;43.030;25.108;2023-08-17T02:41:49;16.17;;;9.68;;
21959;SDS011;11144;43.030;25.108;2023-08-17T02:43:22;15.75;;;10.85;;
21959;SDS011;11144;43.030;25.108;2023-08-17T02:44:55;17.83;;;11.07;;
21959;SDS011;11144;43.030;25.108;2023-08-17T02:46:28;13.88;;;9.90;;
21959;SDS011;11144;43.030;25.108;2023-08-17T02:48:01;20.42;;;11.27;;
21959;SDS011;11144;43.030;25.108;2023-08-17T02:49:34;18.35;;;12.23;;
21959;SDS011;11144;43.030;25.108;2023-08-17T02:51:07;22.48;;;11.82;;
21959;SDS011;11144;43.030;25.108;2023-08-17T02:52:40;23.98;;;12.68;;
21959;SDS011;11144;43.030;25.108;2023-08-17T02:54:12;18.55;;;11.57;;
21959;SDS011;11144;43.030;25.108;2023-08-17T02:55:46;24.20;;;12.35;;
21959;SDS011;11144;43.030;25.108;2023-08-17T02:57:20;21.70;;;13.10;;
21959;SDS011;11144;43.030;25.108;2023-08-17T02:58:54;22.95;;;12.82;;
21959;SDS011;11144;43.030;25.108;2023-08-17T03:00:26;16.08;;;11.18;;
21959;SDS011;11144;43.030;25.108;2023-08-17T03:01:59;23.40;;;12.40;;
21959;SDS011;11144;43.030;25.108;2023-08-17T03:03:32;19.90;;;11.73;;
21959;SDS011;11144;43.030;25.108;2023-08-17T03:05:05;16.08;;;11.38;;
21959;SDS011;11144;43.030;25.108;2023-08-17T03:06:38;17.83;;;11.77;;
21959;SDS011;11144;43.030;25.108;2023-08-17T03:08:11;16.42;;;11.68;;
21959;SDS011;11144;43.030;25.108;2023-08-17T03:09:43;23.08;;;12.52;;
21959;SDS011;11144;43.030;25.108;2023-08-17T03:11:16;15.25;;;11.73;;
21959;SDS011;11144;43.030;25.108;2023-08-17T03:12:51;15.77;;;10.65;;
21959;SDS011;11144;43.030;25.108;2023-08-17T03:14:24;16.00;;;9.82;;
21959;SDS011;11144;43.030;25.108;2023-08-17T03:15:59;14.20;;;8.85;;
21959;SDS011;11144;43.030;25.108;2023-08-17T03:17:32;14.90;;;8.27;;
21959;SDS011;11144;43.030;25.108;2023-08-17T03:19:05;10.63;;;8.38;;
21959;SDS011;11144;43.030;25.108;2023-08-17T03:20:39;10.93;;;8.40;;
21959;SDS011;11144;43.030;25.108;2023-08-17T03:22:12;11.85;;;7.10;;
21959;SDS011;11144;43.030;25.108;2023-08-17T03:23:46;9.15;;;6.82;;
21959;SDS011;11144;43.030;25.108;2023-08-17T03:25:18;9.00;;;7.40;;
21959;SDS011;11144;43.030;25.108;2023-08-17T03:26:52;7.82;;;6.90;;
21959;SDS011;11144;43.030;25.108;2023-08-17T03:28:26;15.18;;;7.55;;
21959;SDS011;11144;43.030;25.108;2023-08-17T03:29:59;10.43;;;6.40;;
21959;SDS011;11144;43.030;25.108;2023-08-17T03:31:33;10.20;;;7.72;;
21959;SDS011;11144;43.030;25.108;2023-08-17T03:33:06;7.93;;;7.13;;
21959;SDS011;11144;43.030;25.108;2023-08-17T03:34:39;9.40;;;7.72;;
21959;SDS011;11144;43.030;25.108;2023-08-17T03:36:12;11.73;;;7.75;;
21959;SDS011;11144;43.030;25.108;2023-08-17T03:37:44;10.10;;;6.93;;
21959;SDS011;11144;43.030;25.108;2023-08-17T03:39:18;11.10;;;7.65;;
21959;SDS011;11144;43.030;25.108;2023-08-17T03:40:52;10.55;;;7.88;;
21959;SDS011;11144;43.030;25.108;2023-08-17T03:42:26;11.57;;;8.18;;
21959;SDS011;11144;43.030;25.108;2023-08-17T03:44:01;11.02;;;8.55;;
21959;SDS011;11144;43.030;25.108;2023-08-17T03:45:34;9.98;;;8.10;;
21959;SDS011;11144;43.030;25.108;2023-08-17T03:47:07;11.90;;;7.90;;
21959;SDS011;11144;43.030;25.108;2023-08-17T03:48:40;12.55;;;9.13;;
21959;SDS011;11144;43.030;25.108;2023-08-17T03:50:13;10.73;;;8.15;;
21959;SDS011;11144;43.030;25.108;2023-08-17T03:51:46;10.40;;;8.93;;
21959;SDS011;11144;43.030;25.108;2023-08-17T03:53:21;11.27;;;8.70;;
21959;SDS011;11144;43.030;25.108;2023-08-17T03:54:53;10.75;;;8.50;;
21959;SDS011;11144;43.030;25.108;2023-08-17T03:56:27;11.48;;;9.13;;
21959;SDS011;11144;43.030;25.108;2023-08-17T03:58:00;14.43;;;9.73;;
21959;SDS011;11144;43.030;25.108;2023-08-17T03:59:35;16.48;;;10.80;;
21959;SDS011;11144;43.030;25.108;2023-08-17T04:01:08;17.55;;;11.38;;
21959;SDS011;11144;43.030;25.108;2023-08-17T04:02:45;19.40;;;11.77;;
21959;SDS011;11144;43.030;25.108;2023-08-17T04:04:21;21.48;;;12.38;;
21959;SDS011;11144;43.030;25.108;2023-08-17T04:05:54;26.05;;;12.13;;
21959;SDS011;11144;43.030;25.108;2023-08-17T04:07:27;25.20;;;13.23;;
21959;SDS011;11144;43.030;25.108;2023-08-17T04:09:00;22.75;;;14.05;;
21959;SDS011;11144;43.030;25.108;2023-08-17T04:10:33;22.90;;;13.60;;
21959;SDS011;11144;43.030;25.108;2023-08-17T04:12:07;22.75;;;13.68;;
21959;SDS011;11144;43.030;25.108;2023-08-17T04:13:40;22.00;;;13.05;;
21959;SDS011;11144;43.030;25.108;2023-08-17T04:15:15;21.25;;;12.45;;
21959;SDS011;11144;43.030;25.108;2023-08-17T04:16:47;21.70;;;12.35;;
21959;SDS011;11144;43.030;25.108;2023-08-17T04:18:21;24.17;;;12.63;;
21959;SDS011;11144;43.030;25.108;2023-08-17T04:19:54;27.27;;;12.90;;
21959;SDS011;11144;43.030;25.108;2023-08-17T04:21:27;18.52;;;12.23;;
21959;SDS011;11144;43.030;25.108;2023-08-17T04:23:00;18.02;;;11.90;;
21959;SDS011;11144;43.030;25.108;2023-08-17T04:24:33;25.50;;;12.65;;
21959;SDS011;11144;43.030;25.108;2023-08-17T04:26:06;21.50;;;12.20;;
21959;SDS011;11144;43.030;25.108;2023-08-17T04:27:39;22.67;;;12.73;;
21959;SDS011;11144;43.030;25.108;2023-08-17T04:29:13;21.23;;;12.13;;
21959;SDS011;11144;43.030;25.108;2023-08-17T04:30:47;22.88;;;13.20;;
21959;SDS011;11144;43.030;25.108;2023-08-17T04:32:20;22.55;;;13.07;;
21959;SDS011;11144;43.030;25.108;2023-08-17T04:33:52;24.15;;;13.48;;
21959;SDS011;11144;43.030;25.108;2023-08-17T04:35:26;23.90;;;13.43;;
21959;SDS011;11144;43.030;25.108;2023-08-17T04:36:58;23.30;;;13.50;;
21959;SDS011;11144;43.030;25.108;2023-08-17T04:38:31;23.08;;;12.40;;
21959;SDS011;11144;43.030;25.108;2023-08-17T04:40:05;28.35;;;14.60;;
21959;SDS011;11144;43.030;25.108;2023-08-17T04:41:39;28.23;;;13.90;;
21959;SDS011;11144;43.030;25.108;2023-08-17T04:43:14;27.38;;;12.68;;
21959;SDS011;11144;43.030;25.108;2023-08-17T04:44:50;24.10;;;14.07;;
21959;SDS011;11144;43.030;25.108;2023-08-17T04:46:24;27.40;;;11.68;;
21959;SDS011;11144;43.030;25.108;2023-08-17T04:47:57;23.58;;;13.13;;
21959;SDS011;11144;43.030;25.108;2023-08-17T04:49:30;22.98;;;14.27;;
21959;SDS011;11144;43.030;25.108;2023-08-17T04:51:03;21.45;;;13.32;;
21959;SDS011;11144;43.030;25.108;2023-08-17T04:52:36;21.33;;;13.43;;
21959;SDS011;11144;43.030;25.108;2023-08-17T04:54:09;21.92;;;12.10;;
21959;SDS011;11144;43.030;25.108;2023-08-17T04:55:43;26.02;;;13.07;;
21959;SDS011;11144;43.030;25.108;2023-08-17T04:57:17;20.25;;;12.38;;
21959;SDS011;11144;43.030;25.108;2023-08-17T04:58:50;24.48;;;14.02;;
21959;SDS011;11144;43.030;25.108;2023-08-17T05:00:24;25.70;;;12.90;;
21959;SDS011;11144;43.030;25.108;2023-08-17T05:02:01;26.00;;;15.25;;
21959;SDS011;11144;43.030;25.108;2023-08-17T05:03:36;23.55;;;14.05;;
21959;SDS011;11144;43.030;25.108;2023-08-17T05:05:09;22.75;;;13.65;;
21959;SDS011;11144;43.030;25.108;2023-08-17T05:06:44;19.85;;;13.60;;
21959;SDS011;11144;43.030;25.108;2023-08-17T05:08:16;21.45;;;12.85;;
21959;SDS011;11144;43.030;25.108;2023-08-17T05:09:50;19.17;;;12.60;;
21959;SDS011;11144;43.030;25.108;2023-08-17T05:11:23;17.98;;;12.82;;
21959;SDS011;11144;43.030;25.108;2023-08-17T05:12:57;19.88;;;13.43;;
21959;SDS011;11144;43.030;25.108;2023-08-17T05:14:31;17.38;;;12.38;;
21959;SDS011;11144;43.030;25.108;2023-08-17T05:16:03;16.50;;;11.05;;
21959;SDS011;11144;43.030;25.108;2023-08-17T05:17:38;16.65;;;12.77;;
21959;SDS011;11144;43.030;25.108;2023-08-17T05:19:13;17.77;;;11.40;;
21959;SDS011;11144;43.030;25.108;2023-08-17T05:20:46;17.23;;;10.95;;
21959;SDS011;11144;43.030;25.108;2023-08-17T05:22:18;16.50;;;12.07;;
21959;SDS011;11144;43.030;25.108;2023-08-17T05:23:52;16.90;;;12.45;;
21959;SDS011;11144;43.030;25.108;2023-08-17T05:25:24;13.70;;;11.00;;
21959;SDS011;11144;43.030;25.108;2023-08-17T05:26:58;16.63;;;11.43;;
21959;SDS011;11144;43.030;25.108;2023-08-17T05:28:30;14.63;;;10.95;;
21959;SDS011;11144;43.030;25.108;2023-08-17T05:30:04;13.88;;;10.95;;
21959;SDS011;11144;43.030;25.108;2023-08-17T05:31:37;15.23;;;10.25;;
21959;SDS011;11144;43.030;25.108;2023-08-17T05:33:14;13.45;;;10.43;;
21959;SDS011;11144;43.030;25.108;2023-08-17T05:34:47;15.60;;;10.13;;
21959;SDS011;11144;43.030;25.108;2023-08-17T05:36:21;10.93;;;9.18;;
21959;SDS011;11144;43.030;25.108;2023-08-17T05:37:54;12.95;;;9.73;;
21959;SDS011;11144;43.030;25.108;2023-08-17T05:39:27;15.20;;;10.00;;
21959;SDS011;11144;43.030;25.108;2023-08-17T05:41:00;13.32;;;10.25;;
21959;SDS011;11144;43.030;25.108;2023-08-17T05:42:33;14.00;;;9.85;;
21959;SDS011;11144;43.030;25.108;2023-08-17T05:44:06;12.18;;;9.55;;
21959;SDS011;11144;43.030;25.108;2023-08-17T05:45:39;10.75;;;8.68;;
21959;SDS011;11144;43.030;25.108;2023-08-17T05:47:12;11.45;;;8.27;;
21959;SDS011;11144;43.030;25.108;2023-08-17T05:48:50;10.50;;;8.63;;
21959;SDS011;11144;43.030;25.108;2023-08-17T05:50:22;11.30;;;8.35;;
21959;SDS011;11144;43.030;25.108;2023-08-17T05:51:56;9.63;;;8.38;;
21959;SDS011;11144;43.030;25.108;2023-08-17T05:53:29;10.60;;;8.35;;
21959;SDS011;11144;43.030;25.108;2023-08-17T05:55:02;9.43;;;8.43;;
21959;SDS011;11144;43.030;25.108;2023-08-17T05:56:34;9.52;;;8.07;;
21959;SDS011;11144;43.030;25.108;2023-08-17T05:58:08;8.00;;;7.20;;
21959;SDS011;11144;43.030;25.108;2023-08-17T05:59:41;8.55;;;7.43;;
21959;SDS011;11144;43.030;25.108;2023-08-17T06:01:14;8.75;;;7.63;;
21959;SDS011;11144;43.030;25.108;2023-08-17T06:02:46;8.60;;;7.70;;
21959;SDS011;11144;43.030;25.108;2023-08-17T06:04:24;8.50;;;7.60;;
21959;SDS011;11144;43.030;25.108;2023-08-17T06:05:57;9.32;;;7.15;;
21959;SDS011;11144;43.030;25.108;2023-08-17T06:07:29;8.00;;;6.78;;
21959;SDS011;11144;43.030;25.108;2023-08-17T06:09:02;8.00;;;7.20;;
21959;SDS011;11144;43.030;25.108;2023-08-17T06:10:35;8.60;;;7.70;;
21959;SDS011;11144;43.030;25.108;2023-08-17T06:12:08;7.95;;;7.18;;
21959;SDS011;11144;43.030;25.108;2023-08-17T06:13:41;8.20;;;6.75;;
21959;SDS011;11144;43.030;25.108;2023-08-17T06:15:14;9.50;;;6.70;;
21959;SDS011;11144;43.030;25.108;2023-08-17T06:16:47;7.03;;;6.32;;
21959;SDS011;11144;43.030;25.108;2023-08-17T06:18:20;8.80;;;6.88;;
21959;SDS011;11144;43.030;25.108;2023-08-17T06:19:54;9.30;;;7.40;;
21959;SDS011;11144;43.030;25.108;2023-08-17T06:21:26;7.63;;;6.15;;
21959;SDS011;11144;43.030;25.108;2023-08-17T06:23:00;7.97;;;6.35;;
21959;SDS011;11144;43.030;25.108;2023-08-17T06:24:32;6.63;;;5.82;;
21959;SDS011;11144;43.030;25.108;2023-08-17T06:26:05;8.60;;;6.20;;
21959;SDS011;11144;43.030;25.108;2023-08-17T06:27:40;8.02;;;6.10;;
21959;SDS011;11144;43.030;25.108;2023-08-17T06:29:14;7.53;;;6.82;;
21959;SDS011;11144;43.030;25.108;2023-08-17T06:30:51;8.02;;;6.00;;
21959;SDS011;11144;43.030;25.108;2023-08-17T06:32:25;9.35;;;6.55;;
21959;SDS011;11144;43.030;25.108;2023-08-17T06:33:57;6.43;;;5.78;;
21959;SDS011;11144;43.030;25.108;2023-08-17T06:35:32;6.55;;;5.35;;
21959;SDS011;11144;43.030;25.108;2023-08-17T06:37:04;6.20;;;5.60;;
21959;SDS011;11144;43.030;25.108;2023-08-17T06:38:37;6.68;;;5.63;;
21959;SDS011;11144;43.030;25.108;2023-08-17T06:40:10;6.55;;;5.40;;
21959;SDS011;11144;43.030;25.108;2023-08-17T06:41:44;7.90;;;5.38;;
21959;SDS011;11144;43.030;25.108;2023-08-17T06:43:16;5.72;;;5.07;;
21959;SDS011;11144;43.030;25.108;2023-08-17T06:44:50;5.88;;;5.28;;
21959;SDS011;11144;43.030;25.108;2023-08-17T06:46:22;7.03;;;6.00;;
21959;SDS011;11144;43.030;25.108;2023-08-17T06:47:56;8.15;;;5.55;;
21959;SDS011;11144;43.030;25.108;2023-08-17T06:49:28;6.20;;;5.50;;
21959;SDS011;11144;43.030;25.108;2023-08-17T06:51:03;6.25;;;5.38;;
21959;SDS011;11144;43.030;25.108;2023-08-17T06:52:36;7.38;;;6.05;;
21959;SDS011;11144;43.030;25.108;2023-08-17T06:54:10;8.27;;;5.22;;
21959;SDS011;11144;43.030;25.108;2023-08-17T06:55:43;7.60;;;6.25;;
21959;SDS011;11144;43.030;25.108;2023-08-17T06:57:16;7.57;;;5.82;;
21959;SDS011;11144;43.030;25.108;2023-08-17T06:58:49;8.57;;;6.38;;
21959;SDS011;11144;43.030;25.108;2023-08-17T07:00:22;8.48;;;6.10;;
21959;SDS011;11144;43.030;25.108;2023-08-17T07:01:56;6.80;;;5.50;;
21959;SDS011;11144;43.030;25.108;2023-08-17T07:03:29;9.90;;;5.95;;
21959;SDS011;11144;43.030;25.108;2023-08-17T07:05:02;6.50;;;5.85;;
21959;SDS011;11144;43.030;25.108;2023-08-17T07:06:37;12.63;;;6.22;;
21959;SDS011;11144;43.030;25.108;2023-08-17T07:08:10;9.95;;;7.07;;
21959;SDS011;11144;43.030;25.108;2023-08-17T07:09:42;8.30;;;6.90;;
21959;SDS011;11144;43.030;25.108;2023-08-17T07:11:15;10.00;;;6.72;;
21959;SDS011;11144;43.030;25.108;2023-08-17T07:12:49;7.93;;;6.60;;
21959;SDS011;11144;43.030;25.108;2023-08-17T07:14:22;8.30;;;6.50;;
21959;SDS011;11144;43.030;25.108;2023-08-17T07:15:54;8.63;;;6.47;;
21959;SDS011;11144;43.030;25.108;2023-08-17T07:17:28;10.57;;;6.50;;
21959;SDS011;11144;43.030;25.108;2023-08-17T07:19:00;8.40;;;7.10;;
21959;SDS011;11144;43.030;25.108;2023-08-17T07:20:34;10.77;;;7.28;;
21959;SDS011;11144;43.030;25.108;2023-08-17T07:22:09;8.38;;;6.40;;
21959;SDS011;11144;43.030;25.108;2023-08-17T07:23:43;10.00;;;7.53;;
21959;SDS011;11144;43.030;25.108;2023-08-17T07:25:17;9.05;;;6.72;;
21959;SDS011;11144;43.030;25.108;2023-08-17T07:26:50;11.68;;;6.70;;
21959;SDS011;11144;43.030;25.108;2023-08-17T07:28:23;13.75;;;7.10;;
21959;SDS011;11144;43.030;25.108;2023-08-17T07:29:56;10.82;;;7.38;;
21959;SDS011;11144;43.030;25.108;2023-08-17T07:31:28;14.30;;;6.50;;
21959;SDS011;11144;43.030;25.108;2023-08-17T07:33:02;12.05;;;6.70;;
21959;SDS011;11144;43.030;25.108;2023-08-17T07:34:36;9.05;;;5.90;;
21959;SDS011;11144;43.030;25.108;2023-08-17T07:36:08;10.55;;;6.78;;
21959;SDS011;11144;43.030;25.108;2023-08-17T07:37:43;7.40;;;6.30;;
21959;SDS011;11144;43.030;25.108;2023-08-17T07:39:30;7.53;;;6.18;;
21959;SDS011;11144;43.030;25.108;2023-08-17T07:41:03;9.45;;;5.88;;
21959;SDS011;11144;43.030;25.108;2023-08-17T07:42:36;12.13;;;6.22;;
21959;SDS011;11144;43.030;25.108;2023-08-17T07:44:09;12.45;;;6.05;;
21959;SDS011;11144;43.030;25.108;2023-08-17T07:45:42;8.90;;;5.65;;
21959;SDS011;11144;43.030;25.108;2023-08-17T07:47:16;15.02;;;6.82;;
21959;SDS011;11144;43.030;25.108;2023-08-17T07:48:48;7.13;;;5.45;;
21959;SDS011;11144;43.030;25.108;2023-08-17T07:50:21;9.55;;;4.70;;
21959;SDS011;11144;43.030;25.108;2023-08-17T07:51:54;8.82;;;5.95;;
21959;SDS011;11144;43.030;25.108;2023-08-17T07:53:28;8.68;;;5.93;;
21959;SDS011;11144;43.030;25.108;2023-08-17T07:55:01;8.25;;;6.05;;
21959;SDS011;11144;43.030;25.108;2023-08-17T07:56:36;8.48;;;5.03;;
21959;SDS011;11144;43.030;25.108;2023-08-17T07:58:09;11.25;;;5.20;;
21959;SDS011;11144;43.030;25.108;2023-08-17T07:59:42;7.72;;;5.40;;
21959;SDS011;11144;43.030;25.108;2023-08-17T08:01:15;7.38;;;4.85;;
21959;SDS011;11144;43.030;25.108;2023-08-17T08:02:49;8.18;;;5.22;;
21959;SDS011;11144;43.030;25.108;2023-08-17T08:04:22;7.80;;;5.28;;
21959;SDS011;11144;43.030;25.108;2023-08-17T08:05:54;7.32;;;4.63;;
21959;SDS011;11144;43.030;25.108;2023-08-17T08:07:28;4.63;;;4.22;;
21959;SDS011;11144;43.030;25.108;2023-08-17T08:09:02;7.03;;;5.57;;
21959;SDS011;11144;43.030;25.108;2023-08-17T08:10:35;7.55;;;4.38;;
21959;SDS011;11144;43.030;25.108;2023-08-17T08:12:07;8.43;;;4.53;;
21959;SDS011;11144;43.030;25.108;2023-08-17T08:13:40;7.50;;;4.90;;
21959;SDS011;11144;43.030;25.108;2023-08-17T08:15:14;7.28;;;5.07;;
21959;SDS011;11144;43.030;25.108;2023-08-17T08:16:47;7.00;;;4.60;;
21959;SDS011;11144;43.030;25.108;2023-08-17T08:18:19;7.43;;;5.03;;
21959;SDS011;11144;43.030;25.108;2023-08-17T08:19:53;7.30;;;4.40;;
21959;SDS011;11144;43.030;25.108;2023-08-17T08:21:26;5.47;;;4.53;;
21959;SDS011;11144;43.030;25.108;2023-08-17T08:22:59;6.88;;;4.85;;
21959;SDS011;11144;43.030;25.108;2023-08-17T08:24:33;6.68;;;5.28;;
21959;SDS011;11144;43.030;25.108;2023-08-17T08:26:09;10.75;;;5.60;;
21959;SDS011;11144;43.030;25.108;2023-08-17T08:27:41;6.80;;;4.93;;
21959;SDS011;11144;43.030;25.108;2023-08-17T08:29:15;6.82;;;4.90;;
21959;SDS011;11144;43.030;25.108;2023-08-17T08:30:47;6.22;;;4.55;;
21959;SDS011;11144;43.030;25.108;2023-08-17T08:32:20;9.82;;;4.75;;
21959;SDS011;11144;43.030;25.108;2023-08-17T08:33:53;7.45;;;4.82;;
21959;SDS011;11144;43.030;25.108;2023-08-17T08:35:26;9.18;;;4.95;;
21959;SDS011;11144;43.030;25.108;2023-08-17T08:36:59;6.32;;;4.03;;
21959;SDS011;11144;43.030;25.108;2023-08-17T08:38:33;8.95;;;4.60;;
21959;SDS011;11144;43.030;25.108;2023-08-17T08:40:07;4.97;;;4.15;;
21959;SDS011;11144;43.030;25.108;2023-08-17T08:41:44;8.32;;;4.43;;
21959;SDS011;11144;43.030;25.108;2023-08-17T08:43:17;6.03;;;4.03;;
21959;SDS011;11144;43.030;25.108;2023-08-17T08:44:50;7.78;;;3.83;;
21959;SDS011;11144;43.030;25.108;2023-08-17T08:46:23;4.70;;;3.30;;
21959;SDS011;11144;43.030;25.108;2023-08-17T08:47:59;4.07;;;2.60;;
21959;SDS011;11144;43.030;25.108;2023-08-17T08:49:33;4.50;;;2.40;;
21959;SDS011;11144;43.030;25.108;2023-08-17T08:51:15;2.88;;;2.50;;
21959;SDS011;11144;43.030;25.108;2023-08-17T08:52:58;4.20;;;2.65;;
21959;SDS011;11144;43.030;25.108;2023-08-17T08:54:34;2.92;;;2.53;;
21959;SDS011;11144;43.030;25.108;2023-08-17T08:56:11;4.50;;;3.00;;
21959;SDS011;11144;43.030;25.108;2023-08-17T08:57:46;4.85;;;2.72;;
21959;SDS011;11144;43.030;25.108;2023-08-17T08:59:22;5.45;;;2.63;;
21959;SDS011;11144;43.030;25.108;2023-08-17T09:00:58;4.28;;;2.63;;
21959;SDS011;11144;43.030;25.108;2023-08-17T09:02:32;3.30;;;2.40;;
21959;SDS011;11144;43.030;25.108;2023-08-17T09:04:06;5.07;;;2.72;;
21959;SDS011;11144;43.030;25.108;2023-08-17T09:05:39;4.80;;;2.45;;
21959;SDS011;11144;43.030;25.108;2023-08-17T09:07:13;5.45;;;2.55;;
21959;SDS011;11144;43.030;25.108;2023-08-17T09:08:46;3.67;;;2.65;;
21959;SDS011;11144;43.030;25.108;2023-08-17T09:10:22;4.57;;;2.78;;
21959;SDS011;11144;43.030;25.108;2023-08-17T09:11:56;5.90;;;2.38;;
21959;SDS011;11144;43.030;25.108;2023-08-17T09:13:29;6.75;;;2.78;;
21959;SDS011;11144;43.030;25.108;2023-08-17T09:15:02;8.60;;;3.05;;
21959;SDS011;11144;43.030;25.108;2023-08-17T09:16:35;9.60;;;3.47;;
21959;SDS011;11144;43.030;25.108;2023-08-17T09:18:08;6.10;;;2.90;;
21959;SDS011;11144;43.030;25.108;2023-08-17T09:19:47;2.90;;;2.42;;
21959;SDS011;11144;43.030;25.108;2023-08-17T09:21:20;5.35;;;2.70;;
21959;SDS011;11144;43.030;25.108;2023-08-17T09:22:53;5.47;;;2.70;;
21959;SDS011;11144;43.030;25.108;2023-08-17T09:24:36;3.20;;;2.83;;
21959;SDS011;11144;43.030;25.108;2023-08-17T09:26:09;4.90;;;3.10;;
21959;SDS011;11144;43.030;25.108;2023-08-17T09:27:43;2.88;;;2.55;;
21959;SDS011;11144;43.030;25.108;2023-08-17T09:29:17;3.70;;;2.78;;
21959;SDS011;11144;43.030;25.108;2023-08-17T09:30:51;3.72;;;2.72;;